sensor_id;sensor_type;location;lat;lon;timestamp;temperature;humidity
45849;DHT22;31567;54.600;9.842;2024-03-23T00:54:33;7.40;99.90
45849;DHT22;31567;54.600;9.842;2024-03-23T00:58:13;7.40;99.90
45849;DHT22;31567;54.600;9.842;2024-03-23T01:01:53;7.40;99.90
45849;DHT22;31567;54.600;9.842;2024-03-23T01:05:32;7.30;99.90
45849;DHT22;31567;54.600;9.842;2024-03-23T01:09:12;7.30;99.90
45849;DHT22;31567;54.600;9.842;2024-03-23T01:12:52;7.30;99.90
45849;DHT22;31567;54.600;9.842;2024-03-23T01:16:32;7.30;99.90
45849;DHT22;31567;54.600;9.842;2024-03-23T01:20:12;7.20;99.90
45849;DHT22;31567;54.600;9.842;2024-03-23T01:23:51;7.20;99.90
45849;DHT22;31567;54.600;9.842;2024-03-23T01:27:31;7.20;99.90
45849;DHT22;31567;54.600;9.842;2024-03-23T01:31:10;7.20;99.90
45849;DHT22;31567;54.600;9.842;2024-03-23T01:34:50;7.20;99.90
45849;DHT22;31567;54.600;9.842;2024-03-23T01:38:30;7.20;99.90
45849;DHT22;31567;54.600;9.842;2024-03-23T01:42:09;7.10;99.90
45849;DHT22;31567;54.600;9.842;2024-03-23T01:45:49;7.10;99.90
45849;DHT22;31567;54.600;9.842;2024-03-23T01:49:29;7.20;99.90
45849;DHT22;31567;54.600;9.842;2024-03-23T01:53:09;7.20;99.90
45849;DHT22;31567;54.600;9.842;2024-03-23T01:56:48;7.10;99.90
45849;DHT22;31567;54.600;9.842;2024-03-23T02:00:28;7.10;99.90
45849;DHT22;31567;54.600;9.842;2024-03-23T02:04:08;7.10;99.90
45849;DHT22;31567;54.600;9.842;2024-03-23T02:07:49;7.10;99.90
45849;DHT22;31567;54.600;9.842;2024-03-23T02:11:30;7.10;99.90
45849;DHT22;31567;54.600;9.842;2024-03-23T02:15:09;7.00;99.90
45849;DHT22;31567;54.600;9.842;2024-03-23T02:18:49;7.00;99.90
45849;DHT22;31567;54.600;9.842;2024-03-23T02:22:38;7.00;99.90
45849;DHT22;31567;54.600;9.842;2024-03-23T02:26:17;7.10;99.90
45849;DHT22;31567;54.600;9.842;2024-03-23T02:29:57;7.10;99.90
45849;DHT22;31567;54.600;9.842;2024-03-23T02:33:36;7.00;99.90
45849;DHT22;31567;54.600;9.842;2024-03-23T02:37:17;7.10;99.90
45849;DHT22;31567;54.600;9.842;2024-03-23T02:41:04;7.00;99.90
45849;DHT22;31567;54.600;9.842;2024-03-23T02:44:44;7.00;99.90
45849;DHT22;31567;54.600;9.842;2024-03-23T02:48:24;6.90;99.90
45849;DHT22;31567;54.600;9.842;2024-03-23T02:52:03;6.90;99.90
45849;DHT22;31567;54.600;9.842;2024-03-23T02:55:43;6.90;99.90
45849;DHT22;31567;54.600;9.842;2024-03-23T02:59:22;6.90;99.90
45849;DHT22;31567;54.600;9.842;2024-03-23T03:03:02;6.80;99.90
45849;DHT22;31567;54.600;9.842;2024-03-23T03:06:48;6.90;99.90
45849;DHT22;31567;54.600;9.842;2024-03-23T03:10:28;6.80;99.90
45849;DHT22;31567;54.600;9.842;2024-03-23T03:14:08;6.80;99.90
45849;DHT22;31567;54.600;9.842;2024-03-23T03:17:47;6.80;99.90
45849;DHT22;31567;54.600;9.842;2024-03-23T03:21:27;6.80;99.90
45849;DHT22;31567;54.600;9.842;2024-03-23T03:25:07;6.80;99.90
45849;DHT22;31567;54.600;9.842;2024-03-23T03:28:47;6.80;99.90
45849;DHT22;31567;54.600;9.842;2024-03-23T03:32:29;6.80;99.90
45849;DHT22;31567;54.600;9.842;2024-03-23T03:36:08;6.80;99.90
45849;DHT22;31567;54.600;9.842;2024-03-23T03:39:48;6.80;99.90
45849;DHT22;31567;54.600;9.842;2024-03-23T03:43:28;6.80;99.90
45849;DHT22;31567;54.600;9.842;2024-03-23T03:47:07;6.80;99.90
45849;DHT22;31567;54.600;9.842;2024-03-23T03:50:47;6.80;99.90
45849;DHT22;31567;54.600;9.842;2024-03-23T03:54:26;6.80;99.90
45849;DHT22;31567;54.600;9.842;2024-03-23T03:58:06;6.80;99.90
45849;DHT22;31567;54.600;9.842;2024-03-23T04:01:45;6.80;99.90
45849;DHT22;31567;54.600;9.842;2024-03-23T04:05:25;6.70;99.90
45849;DHT22;31567;54.600;9.842;2024-03-23T04:09:04;6.80;99.90
45849;DHT22;31567;54.600;9.842;2024-03-23T04:12:46;6.70;99.90
45849;DHT22;31567;54.600;9.842;2024-03-23T04:16:27;6.70;99.90
45849;DHT22;31567;54.600;9.842;2024-03-23T04:20:07;6.70;99.90
45849;DHT22;31567;54.600;9.842;2024-03-23T04:23:50;6.70;99.90
45849;DHT22;31567;54.600;9.842;2024-03-23T04:27:29;6.70;99.90
45849;DHT22;31567;54.600;9.842;2024-03-23T04:31:10;6.70;99.90
45849;DHT22;31567;54.600;9.842;2024-03-23T04:34:49;6.70;99.90
45849;DHT22;31567;54.600;9.842;2024-03-23T04:38:29;6.60;99.90
45849;DHT22;31567;54.600;9.842;2024-03-23T04:42:08;6.70;99.90
45849;DHT22;31567;54.600;9.842;2024-03-23T04:45:48;6.70;99.90
45849;DHT22;31567;54.600;9.842;2024-03-23T04:49:27;6.70;99.90
45849;DHT22;31567;54.600;9.842;2024-03-23T04:53:07;6.70;99.90
45849;DHT22;31567;54.600;9.842;2024-03-23T04:56:47;6.70;99.90
45849;DHT22;31567;54.600;9.842;2024-03-23T05:00:27;6.70;99.90
45849;DHT22;31567;54.600;9.842;2024-03-23T05:04:06;6.70;99.90
45849;DHT22;31567;54.600;9.842;2024-03-23T05:07:46;6.80;99.90
45849;DHT22;31567;54.600;9.842;2024-03-23T05:11:25;6.70;99.90
45849;DHT22;31567;54.600;9.842;2024-03-23T05:15:06;6.80;99.90
45849;DHT22;31567;54.600;9.842;2024-03-23T05:18:46;6.70;99.90
45849;DHT22;31567;54.600;9.842;2024-03-23T05:22:26;6.80;99.90
45849;DHT22;31567;54.600;9.842;2024-03-23T05:26:06;6.70;99.90
45849;DHT22;31567;54.600;9.842;2024-03-23T05:29:46;6.80;99.90
45849;DHT22;31567;54.600;9.842;2024-03-23T05:33:26;6.80;99.90
45849;DHT22;31567;54.600;9.842;2024-03-23T05:37:06;6.90;99.90
45849;DHT22;31567;54.600;9.842;2024-03-23T05:41:01;6.80;99.90
45849;DHT22;31567;54.600;9.842;2024-03-23T05:44:45;6.80;99.90
45849;DHT22;31567;54.600;9.842;2024-03-23T05:48:26;6.80;99.90
45849;DHT22;31567;54.600;9.842;2024-03-23T05:52:05;6.80;99.90
45849;DHT22;31567;54.600;9.842;2024-03-23T05:55:45;6.80;99.90
45849;DHT22;31567;54.600;9.842;2024-03-23T05:59:25;6.80;99.90
45849;DHT22;31567;54.600;9.842;2024-03-23T06:03:04;6.90;99.90
45849;DHT22;31567;54.600;9.842;2024-03-23T06:06:44;6.80;99.90
45849;DHT22;31567;54.600;9.842;2024-03-23T06:10:24;6.80;99.90
45849;DHT22;31567;54.600;9.842;2024-03-23T06:14:03;6.80;99.90
45849;DHT22;31567;54.600;9.842;2024-03-23T06:17:43;6.90;99.90
45849;DHT22;31567;54.600;9.842;2024-03-23T06:21:22;6.90;99.90
45849;DHT22;31567;54.600;9.842;2024-03-23T06:25:03;7.00;99.90
45849;DHT22;31567;54.600;9.842;2024-03-23T06:28:43;7.00;99.90
45849;DHT22;31567;54.600;9.842;2024-03-23T06:32:22;7.10;99.90
45849;DHT22;31567;54.600;9.842;2024-03-23T06:36:02;7.10;99.90
45849;DHT22;31567;54.600;9.842;2024-03-23T06:39:42;7.20;99.90
45849;DHT22;31567;54.600;9.842;2024-03-23T06:43:22;7.30;99.90
45849;DHT22;31567;54.600;9.842;2024-03-23T06:47:01;7.40;99.90
45849;DHT22;31567;54.600;9.842;2024-03-23T06:50:42;7.40;99.90
45849;DHT22;31567;54.600;9.842;2024-03-23T06:54:21;7.40;99.90
45849;DHT22;31567;54.600;9.842;2024-03-23T06:58:01;7.40;99.90
45849;DHT22;31567;54.600;9.842;2024-03-23T07:01:40;7.50;99.90
45849;DHT22;31567;54.600;9.842;2024-03-23T07:05:20;7.40;99.90
45849;DHT22;31567;54.600;9.842;2024-03-23T07:08:59;7.50;99.90
45849;DHT22;31567;54.600;9.842;2024-03-23T07:12:39;7.50;99.90
45849;DHT22;31567;54.600;9.842;2024-03-23T07:16:18;7.60;99.90
45849;DHT22;31567;54.600;9.842;2024-03-23T07:19:58;7.60;99.90
45849;DHT22;31567;54.600;9.842;2024-03-23T07:23:38;7.60;99.90
45849;DHT22;31567;54.600;9.842;2024-03-23T07:27:17;7.70;99.90
45849;DHT22;31567;54.600;9.842;2024-03-23T07:31:07;7.80;99.90
45849;DHT22;31567;54.600;9.842;2024-03-23T07:34:48;7.90;99.90
45849;DHT22;31567;54.600;9.842;2024-03-23T07:38:28;8.00;99.90
45849;DHT22;31567;54.600;9.842;2024-03-23T07:42:08;8.00;99.90
45849;DHT22;31567;54.600;9.842;2024-03-23T07:45:54;8.10;99.90
45849;DHT22;31567;54.600;9.842;2024-03-23T07:49:33;8.10;99.90
45849;DHT22;31567;54.600;9.842;2024-03-23T07:53:13;8.20;99.90
45849;DHT22;31567;54.600;9.842;2024-03-23T07:56:52;8.30;99.90
45849;DHT22;31567;54.600;9.842;2024-03-23T08:00:33;8.50;99.90
45849;DHT22;31567;54.600;9.842;2024-03-23T08:04:12;8.50;99.90
45849;DHT22;31567;54.600;9.842;2024-03-23T08:07:52;8.50;99.90
45849;DHT22;31567;54.600;9.842;2024-03-23T08:11:32;8.60;99.90
45849;DHT22;31567;54.600;9.842;2024-03-23T08:15:13;8.70;99.90
45849;DHT22;31567;54.600;9.842;2024-03-23T08:18:54;8.90;99.90
45849;DHT22;31567;54.600;9.842;2024-03-23T08:22:34;8.90;99.90
45849;DHT22;31567;54.600;9.842;2024-03-23T08:26:16;8.90;99.90
45849;DHT22;31567;54.600;9.842;2024-03-23T08:29:55;8.80;99.90
45849;DHT22;31567;54.600;9.842;2024-03-23T08:33:35;8.80;99.90
45849;DHT22;31567;54.600;9.842;2024-03-23T08:37:15;8.80;99.90
45849;DHT22;31567;54.600;9.842;2024-03-23T08:41:07;8.90;99.90
45849;DHT22;31567;54.600;9.842;2024-03-23T08:44:47;9.00;99.90
45849;DHT22;31567;54.600;9.842;2024-03-23T08:48:29;8.80;99.90
45849;DHT22;31567;54.600;9.842;2024-03-23T08:52:08;8.80;99.90
45849;DHT22;31567;54.600;9.842;2024-03-23T08:55:54;8.90;99.90
45849;DHT22;31567;54.600;9.842;2024-03-23T08:59:33;8.90;99.90
45849;DHT22;31567;54.600;9.842;2024-03-23T09:03:13;9.00;99.90
45849;DHT22;31567;54.600;9.842;2024-03-23T09:06:52;9.20;99.90
45849;DHT22;31567;54.600;9.842;2024-03-23T09:10:34;9.20;99.90
45849;DHT22;31567;54.600;9.842;2024-03-23T09:14:14;9.40;99.90
45849;DHT22;31567;54.600;9.842;2024-03-23T09:17:53;9.40;99.90
45849;DHT22;31567;54.600;9.842;2024-03-23T09:21:33;9.60;99.90
45849;DHT22;31567;54.600;9.842;2024-03-23T09:25:12;9.70;99.90
45849;DHT22;31567;54.600;9.842;2024-03-23T09:28:54;9.90;99.90
45849;DHT22;31567;54.600;9.842;2024-03-23T09:32:38;10.10;99.90
45849;DHT22;31567;54.600;9.842;2024-03-23T09:36:18;10.10;99.90
45849;DHT22;31567;54.600;9.842;2024-03-23T09:39:57;10.30;99.90
45849;DHT22;31567;54.600;9.842;2024-03-23T09:43:37;10.20;99.30
45849;DHT22;31567;54.600;9.842;2024-03-23T09:47:17;10.00;98.00
45849;DHT22;31567;54.600;9.842;2024-03-23T09:50:57;9.80;98.30
45849;DHT22;31567;54.600;9.842;2024-03-23T09:54:36;9.60;98.80
45849;DHT22;31567;54.600;9.842;2024-03-23T09:58:18;9.80;99.60
45849;DHT22;31567;54.600;9.842;2024-03-23T10:01:57;9.80;99.40
45849;DHT22;31567;54.600;9.842;2024-03-23T10:05:37;10.00;99.90
45849;DHT22;31567;54.600;9.842;2024-03-23T10:09:17;10.10;97.70
45849;DHT22;31567;54.600;9.842;2024-03-23T10:12:57;10.20;97.60
45849;DHT22;31567;54.600;9.842;2024-03-23T10:16:37;10.20;97.00
45849;DHT22;31567;54.600;9.842;2024-03-23T10:20:21;10.00;96.10
45849;DHT22;31567;54.600;9.842;2024-03-23T10:24:08;10.10;96.40
45849;DHT22;31567;54.600;9.842;2024-03-23T10:28:01;10.20;96.70
45849;DHT22;31567;54.600;9.842;2024-03-23T10:31:41;10.30;96.40
45849;DHT22;31567;54.600;9.842;2024-03-23T10:35:22;10.60;97.00
45849;DHT22;31567;54.600;9.842;2024-03-23T10:39:02;10.70;96.70
45849;DHT22;31567;54.600;9.842;2024-03-23T10:42:45;10.80;96.70
45849;DHT22;31567;54.600;9.842;2024-03-23T10:46:24;11.00;96.40
45849;DHT22;31567;54.600;9.842;2024-03-23T10:50:04;11.10;95.50
45849;DHT22;31567;54.600;9.842;2024-03-23T10:53:49;10.80;96.10
45849;DHT22;31567;54.600;9.842;2024-03-23T10:57:52;10.00;96.70
45849;DHT22;31567;54.600;9.842;2024-03-23T11:01:54;9.90;97.40
45849;DHT22;31567;54.600;9.842;2024-03-23T11:05:33;9.90;97.50
45849;DHT22;31567;54.600;9.842;2024-03-23T11:09:47;10.00;97.60
45849;DHT22;31567;54.600;9.842;2024-03-23T11:13:29;10.00;97.00
45849;DHT22;31567;54.600;9.842;2024-03-23T11:17:10;9.90;96.50
45849;DHT22;31567;54.600;9.842;2024-03-23T11:20:50;9.90;96.40
45849;DHT22;31567;54.600;9.842;2024-03-23T11:24:30;9.90;96.20
45849;DHT22;31567;54.600;9.842;2024-03-23T11:28:12;9.90;96.40
45849;DHT22;31567;54.600;9.842;2024-03-23T11:31:53;10.10;96.20
45849;DHT22;31567;54.600;9.842;2024-03-23T11:35:38;10.30;96.50
45849;DHT22;31567;54.600;9.842;2024-03-23T11:39:20;10.50;96.30
45849;DHT22;31567;54.600;9.842;2024-03-23T11:43:01;10.90;96.80
45849;DHT22;31567;54.600;9.842;2024-03-23T11:46:42;11.10;95.60
45849;DHT22;31567;54.600;9.842;2024-03-23T11:50:21;10.80;94.40
45849;DHT22;31567;54.600;9.842;2024-03-23T11:54:08;10.60;94.70
45849;DHT22;31567;54.600;9.842;2024-03-23T11:57:48;10.40;95.00
45849;DHT22;31567;54.600;9.842;2024-03-23T12:01:28;10.00;94.80
45849;DHT22;31567;54.600;9.842;2024-03-23T12:05:15;9.70;94.10
45849;DHT22;31567;54.600;9.842;2024-03-23T12:09:05;9.50;96.00
45849;DHT22;31567;54.600;9.842;2024-03-23T12:12:45;9.60;97.40
45849;DHT22;31567;54.600;9.842;2024-03-23T12:16:25;10.00;97.90
45849;DHT22;31567;54.600;9.842;2024-03-23T12:20:07;10.40;98.50
45849;DHT22;31567;54.600;9.842;2024-03-23T12:23:46;10.40;96.90
45849;DHT22;31567;54.600;9.842;2024-03-23T12:27:28;10.30;96.30
45849;DHT22;31567;54.600;9.842;2024-03-23T12:31:07;10.00;96.90
45849;DHT22;31567;54.600;9.842;2024-03-23T12:34:47;9.90;98.50
45849;DHT22;31567;54.600;9.842;2024-03-23T12:38:26;10.10;98.50
45849;DHT22;31567;54.600;9.842;2024-03-23T12:42:06;9.90;97.40
45849;DHT22;31567;54.600;9.842;2024-03-23T12:45:49;9.70;96.90
45849;DHT22;31567;54.600;9.842;2024-03-23T12:49:29;9.60;96.70
45849;DHT22;31567;54.600;9.842;2024-03-23T12:53:09;9.40;97.00
45849;DHT22;31567;54.600;9.842;2024-03-23T12:56:48;9.50;98.20
45849;DHT22;31567;54.600;9.842;2024-03-23T13:00:28;9.70;97.90
45849;DHT22;31567;54.600;9.842;2024-03-23T13:04:07;9.90;97.60
45849;DHT22;31567;54.600;9.842;2024-03-23T13:07:47;10.10;96.60
45849;DHT22;31567;54.600;9.842;2024-03-23T13:11:27;10.30;96.00
45849;DHT22;31567;54.600;9.842;2024-03-23T13:15:07;10.30;95.90
45849;DHT22;31567;54.600;9.842;2024-03-23T13:18:46;10.30;96.20
45849;DHT22;31567;54.600;9.842;2024-03-23T13:22:26;10.10;96.10
45849;DHT22;31567;54.600;9.842;2024-03-23T13:26:05;10.00;96.10
45849;DHT22;31567;54.600;9.842;2024-03-23T13:29:45;9.80;95.60
45849;DHT22;31567;54.600;9.842;2024-03-23T13:33:26;9.90;96.90
45849;DHT22;31567;54.600;9.842;2024-03-23T13:37:05;10.00;96.90
45849;DHT22;31567;54.600;9.842;2024-03-23T13:40:57;10.20;96.70
45849;DHT22;31567;54.600;9.842;2024-03-23T13:44:37;10.40;96.20
45849;DHT22;31567;54.600;9.842;2024-03-23T13:48:17;10.30;95.60
45849;DHT22;31567;54.600;9.842;2024-03-23T13:51:58;10.00;95.10
45849;DHT22;31567;54.600;9.842;2024-03-23T13:55:38;9.80;95.40
45849;DHT22;31567;54.600;9.842;2024-03-23T13:59:25;9.70;95.20
45849;DHT22;31567;54.600;9.842;2024-03-23T14:03:04;10.00;95.50
45849;DHT22;31567;54.600;9.842;2024-03-23T14:06:45;10.20;95.40
45849;DHT22;31567;54.600;9.842;2024-03-23T14:10:25;10.30;94.70
45849;DHT22;31567;54.600;9.842;2024-03-23T14:14:04;10.40;95.40
45849;DHT22;31567;54.600;9.842;2024-03-23T14:17:44;10.40;94.50
45849;DHT22;31567;54.600;9.842;2024-03-23T14:21:23;10.60;94.70
45849;DHT22;31567;54.600;9.842;2024-03-23T14:25:03;10.60;94.00
45849;DHT22;31567;54.600;9.842;2024-03-23T14:28:43;10.50;94.60
45849;DHT22;31567;54.600;9.842;2024-03-23T14:32:22;10.60;94.10
45849;DHT22;31567;54.600;9.842;2024-03-23T14:36:03;10.60;93.90
45849;DHT22;31567;54.600;9.842;2024-03-23T14:39:43;10.70;93.60
45849;DHT22;31567;54.600;9.842;2024-03-23T14:43:24;10.70;93.30
45849;DHT22;31567;54.600;9.842;2024-03-23T14:47:04;11.00;93.80
45849;DHT22;31567;54.600;9.842;2024-03-23T14:50:43;10.90;92.70
45849;DHT22;31567;54.600;9.842;2024-03-23T14:54:23;10.90;93.70
45849;DHT22;31567;54.600;9.842;2024-03-23T14:58:03;10.90;93.80
45849;DHT22;31567;54.600;9.842;2024-03-23T15:01:43;10.90;93.80
45849;DHT22;31567;54.600;9.842;2024-03-23T15:05:22;10.70;93.60
45849;DHT22;31567;54.600;9.842;2024-03-23T15:09:02;10.50;93.90
45849;DHT22;31567;54.600;9.842;2024-03-23T15:12:46;10.50;94.10
45849;DHT22;31567;54.600;9.842;2024-03-23T15:16:26;10.60;94.50
45849;DHT22;31567;54.600;9.842;2024-03-23T15:20:06;10.50;94.00
45849;DHT22;31567;54.600;9.842;2024-03-23T15:23:46;10.60;94.00
45849;DHT22;31567;54.600;9.842;2024-03-23T15:27:25;10.80;94.20
45849;DHT22;31567;54.600;9.842;2024-03-23T15:31:05;10.80;93.00
45849;DHT22;31567;54.600;9.842;2024-03-23T15:34:46;10.70;92.80
45849;DHT22;31567;54.600;9.842;2024-03-23T15:38:25;10.30;92.80
45849;DHT22;31567;54.600;9.842;2024-03-23T15:42:05;10.20;93.70
45849;DHT22;31567;54.600;9.842;2024-03-23T15:45:56;9.80;94.10
45849;DHT22;31567;54.600;9.842;2024-03-23T15:49:37;9.50;94.40
45849;DHT22;31567;54.600;9.842;2024-03-23T15:53:16;9.20;96.40
45849;DHT22;31567;54.600;9.842;2024-03-23T15:56:56;9.00;97.70
45849;DHT22;31567;54.600;9.842;2024-03-23T16:00:35;8.90;98.10
45849;DHT22;31567;54.600;9.842;2024-03-23T16:04:15;8.90;98.40
45849;DHT22;31567;54.600;9.842;2024-03-23T16:07:54;9.10;98.60
45849;DHT22;31567;54.600;9.842;2024-03-23T16:11:34;9.30;98.60
45849;DHT22;31567;54.600;9.842;2024-03-23T16:15:14;9.50;98.10
45849;DHT22;31567;54.600;9.842;2024-03-23T16:18:53;9.60;97.90
45849;DHT22;31567;54.600;9.842;2024-03-23T16:22:33;9.70;97.60
45849;DHT22;31567;54.600;9.842;2024-03-23T16:26:12;9.80;97.50
45849;DHT22;31567;54.600;9.842;2024-03-23T16:29:52;9.90;97.40
45849;DHT22;31567;54.600;9.842;2024-03-23T16:33:32;10.00;96.80
45849;DHT22;31567;54.600;9.842;2024-03-23T16:37:11;9.90;96.40
45849;DHT22;31567;54.600;9.842;2024-03-23T16:40:59;10.00;96.50
45849;DHT22;31567;54.600;9.842;2024-03-23T16:44:38;9.90;96.20
45849;DHT22;31567;54.600;9.842;2024-03-23T16:48:18;9.80;96.10
45849;DHT22;31567;54.600;9.842;2024-03-23T16:51:58;9.70;95.90
45849;DHT22;31567;54.600;9.842;2024-03-23T16:55:37;9.60;95.70
45849;DHT22;31567;54.600;9.842;2024-03-23T16:59:17;9.50;96.00
45849;DHT22;31567;54.600;9.842;2024-03-23T17:02:57;9.50;96.20
45849;DHT22;31567;54.600;9.842;2024-03-23T17:06:37;9.30;96.40
45849;DHT22;31567;54.600;9.842;2024-03-23T17:10:18;9.20;96.50
45849;DHT22;31567;54.600;9.842;2024-03-23T17:13:58;9.20;96.70
45849;DHT22;31567;54.600;9.842;2024-03-23T17:17:37;9.00;96.80
45849;DHT22;31567;54.600;9.842;2024-03-23T17:21:18;8.80;97.10
45849;DHT22;31567;54.600;9.842;2024-03-23T17:24:57;8.70;97.30
45849;DHT22;31567;54.600;9.842;2024-03-23T17:28:37;8.60;97.40
45849;DHT22;31567;54.600;9.842;2024-03-23T17:32:17;8.50;97.60
45849;DHT22;31567;54.600;9.842;2024-03-23T17:35:56;8.50;98.10
45849;DHT22;31567;54.600;9.842;2024-03-23T17:39:36;8.40;98.00
45849;DHT22;31567;54.600;9.842;2024-03-23T17:43:15;8.40;98.10
45849;DHT22;31567;54.600;9.842;2024-03-23T17:46:55;8.30;98.20
45849;DHT22;31567;54.600;9.842;2024-03-23T17:50:34;8.20;98.40
45849;DHT22;31567;54.600;9.842;2024-03-23T17:54:14;8.20;98.60
45849;DHT22;31567;54.600;9.842;2024-03-23T17:57:54;8.20;98.60
45849;DHT22;31567;54.600;9.842;2024-03-23T18:01:35;8.20;98.70
45849;DHT22;31567;54.600;9.842;2024-03-23T18:05:15;8.10;98.90
45849;DHT22;31567;54.600;9.842;2024-03-23T18:08:58;8.10;99.10
45849;DHT22;31567;54.600;9.842;2024-03-23T18:12:38;8.00;99.30
45849;DHT22;31567;54.600;9.842;2024-03-23T18:16:17;8.00;99.40
45849;DHT22;31567;54.600;9.842;2024-03-23T18:19:57;7.90;99.40
45849;DHT22;31567;54.600;9.842;2024-03-23T18:23:37;7.90;99.40
45849;DHT22;31567;54.600;9.842;2024-03-23T18:27:16;7.80;99.20
45849;DHT22;31567;54.600;9.842;2024-03-23T18:31:00;7.80;99.20
45849;DHT22;31567;54.600;9.842;2024-03-23T18:34:39;7.80;99.20
45849;DHT22;31567;54.600;9.842;2024-03-23T18:38:19;7.80;99.10
45849;DHT22;31567;54.600;9.842;2024-03-23T18:41:59;7.80;99.20
45849;DHT22;31567;54.600;9.842;2024-03-23T18:45:48;7.80;99.20
45849;DHT22;31567;54.600;9.842;2024-03-23T18:49:28;7.80;99.20
45849;DHT22;31567;54.600;9.842;2024-03-23T18:53:08;7.90;99.20
45849;DHT22;31567;54.600;9.842;2024-03-23T18:56:49;7.90;99.20
45849;DHT22;31567;54.600;9.842;2024-03-23T19:00:32;7.90;99.20
45849;DHT22;31567;54.600;9.842;2024-03-23T19:04:11;7.90;99.30
45849;DHT22;31567;54.600;9.842;2024-03-23T19:07:52;7.80;99.60
45849;DHT22;31567;54.600;9.842;2024-03-23T19:11:31;7.70;99.80
45849;DHT22;31567;54.600;9.842;2024-03-23T19:15:11;7.70;99.90
45849;DHT22;31567;54.600;9.842;2024-03-23T19:18:50;7.70;99.90
45849;DHT22;31567;54.600;9.842;2024-03-23T19:22:30;7.60;99.90
45849;DHT22;31567;54.600;9.842;2024-03-23T19:26:10;7.50;99.90
45849;DHT22;31567;54.600;9.842;2024-03-23T19:29:49;7.50;99.90
45849;DHT22;31567;54.600;9.842;2024-03-23T19:33:29;7.50;99.90
45849;DHT22;31567;54.600;9.842;2024-03-23T19:37:10;7.50;99.90
45849;DHT22;31567;54.600;9.842;2024-03-23T19:40:54;7.50;99.90
45849;DHT22;31567;54.600;9.842;2024-03-23T19:44:33;7.40;99.90
45849;DHT22;31567;54.600;9.842;2024-03-23T19:48:13;7.50;99.90
45849;DHT22;31567;54.600;9.842;2024-03-23T19:51:53;7.40;99.90
45849;DHT22;31567;54.600;9.842;2024-03-23T19:55:33;7.40;99.90
45849;DHT22;31567;54.600;9.842;2024-03-23T19:59:12;7.40;99.90
45849;DHT22;31567;54.600;9.842;2024-03-23T20:02:52;7.40;99.90
45849;DHT22;31567;54.600;9.842;2024-03-23T20:06:32;7.40;99.90
45849;DHT22;31567;54.600;9.842;2024-03-23T20:10:11;7.30;99.90
45849;DHT22;31567;54.600;9.842;2024-03-23T20:13:51;7.30;99.90
45849;DHT22;31567;54.600;9.842;2024-03-23T20:17:31;7.40;99.90
45849;DHT22;31567;54.600;9.842;2024-03-23T20:21:10;7.30;99.90
45849;DHT22;31567;54.600;9.842;2024-03-23T20:24:50;7.40;99.90
45849;DHT22;31567;54.600;9.842;2024-03-23T20:28:32;7.30;99.90
45849;DHT22;31567;54.600;9.842;2024-03-23T20:32:11;7.30;99.90
45849;DHT22;31567;54.600;9.842;2024-03-23T20:35:51;7.30;99.90
45849;DHT22;31567;54.600;9.842;2024-03-23T20:39:30;7.30;99.90
45849;DHT22;31567;54.600;9.842;2024-03-23T20:43:10;7.30;99.90
45849;DHT22;31567;54.600;9.842;2024-03-23T20:46:53;7.30;99.90
45849;DHT22;31567;54.600;9.842;2024-03-23T20:50:33;7.20;99.90
45849;DHT22;31567;54.600;9.842;2024-03-23T20:54:12;7.20;99.90
45849;DHT22;31567;54.600;9.842;2024-03-23T20:57:52;7.20;99.90
45849;DHT22;31567;54.600;9.842;2024-03-23T21:01:32;7.20;99.90
45849;DHT22;31567;54.600;9.842;2024-03-23T21:05:12;7.20;99.90
45849;DHT22;31567;54.600;9.842;2024-03-23T21:08:52;7.20;99.90
45849;DHT22;31567;54.600;9.842;2024-03-23T21:12:32;7.20;99.90
45849;DHT22;31567;54.600;9.842;2024-03-23T21:16:12;7.20;99.90
45849;DHT22;31567;54.600;9.842;2024-03-23T21:19:51;7.20;99.90
45849;DHT22;31567;54.600;9.842;2024-03-23T21:23:31;7.20;99.90
45849;DHT22;31567;54.600;9.842;2024-03-23T21:27:11;7.20;99.90
45849;DHT22;31567;54.600;9.842;2024-03-23T21:30:51;7.20;99.90
45849;DHT22;31567;54.600;9.842;2024-03-23T21:34:30;7.20;99.90
45849;DHT22;31567;54.600;9.842;2024-03-23T21:38:10;7.20;99.90
45849;DHT22;31567;54.600;9.842;2024-03-23T21:41:49;7.20;99.90
45849;DHT22;31567;54.600;9.842;2024-03-23T21:45:29;7.20;99.90
45849;DHT22;31567;54.600;9.842;2024-03-23T21:49:08;7.10;99.90
45849;DHT22;31567;54.600;9.842;2024-03-23T21:52:48;7.20;99.90
45849;DHT22;31567;54.600;9.842;2024-03-23T21:56:28;7.20;99.90
45849;DHT22;31567;54.600;9.842;2024-03-23T22:00:08;7.20;99.90
45849;DHT22;31567;54.600;9.842;2024-03-23T22:03:50;7.20;99.90
45849;DHT22;31567;54.600;9.842;2024-03-23T22:07:31;7.20;99.90
45849;DHT22;31567;54.600;9.842;2024-03-23T22:11:11;7.20;99.90
45849;DHT22;31567;54.600;9.842;2024-03-23T22:14:51;7.20;99.90
45849;DHT22;31567;54.600;9.842;2024-03-23T22:18:31;7.30;99.90
45849;DHT22;31567;54.600;9.842;2024-03-23T22:22:10;7.30;99.90
45849;DHT22;31567;54.600;9.842;2024-03-23T22:25:50;7.30;99.90
45849;DHT22;31567;54.600;9.842;2024-03-23T22:29:30;7.30;99.90
45849;DHT22;31567;54.600;9.842;2024-03-23T22:33:09;7.20;99.90
45849;DHT22;31567;54.600;9.842;2024-03-23T22:36:49;7.10;99.90
45849;DHT22;31567;54.600;9.842;2024-03-23T22:40:29;7.10;99.90
45849;DHT22;31567;54.600;9.842;2024-03-23T22:44:08;7.00;99.90
45849;DHT22;31567;54.600;9.842;2024-03-23T22:47:49;6.90;99.90
45849;DHT22;31567;54.600;9.842;2024-03-23T22:51:28;6.80;99.90
45849;DHT22;31567;54.600;9.842;2024-03-23T22:55:09;6.70;99.90
45849;DHT22;31567;54.600;9.842;2024-03-23T22:58:49;6.80;99.90
45849;DHT22;31567;54.600;9.842;2024-03-23T23:02:29;6.60;99.90
45849;DHT22;31567;54.600;9.842;2024-03-23T23:06:09;6.70;99.90
45849;DHT22;31567;54.600;9.842;2024-03-23T23:09:49;6.70;99.90
45849;DHT22;31567;54.600;9.842;2024-03-23T23:13:28;6.60;99.90
45849;DHT22;31567;54.600;9.842;2024-03-23T23:17:09;6.60;99.90
45849;DHT22;31567;54.600;9.842;2024-03-23T23:20:48;6.60;99.90
45849;DHT22;31567;54.600;9.842;2024-03-23T23:24:28;6.60;99.90
45849;DHT22;31567;54.600;9.842;2024-03-23T23:28:07;6.60;99.90
45849;DHT22;31567;54.600;9.842;2024-03-23T23:31:47;6.60;99.90
45849;DHT22;31567;54.600;9.842;2024-03-23T23:35:28;6.60;99.90
45849;DHT22;31567;54.600;9.842;2024-03-23T23:39:08;6.60;99.90
45849;DHT22;31567;54.600;9.842;2024-03-23T23:42:47;6.60;99.90
45849;DHT22;31567;54.600;9.842;2024-03-23T23:46:27;6.60;99.90
45849;DHT22;31567;54.600;9.842;2024-03-23T23:50:07;6.60;99.90
45849;DHT22;31567;54.600;9.842;2024-03-23T23:53:46;6.60;99.90
45849;DHT22;31567;54.600;9.842;2024-03-23T23:57:26;6.60;99.90
